Time;durP1;ratioP1;P1;durP2;ratioP2;P2;SDS_P1;SDS_P2;PMS_P1;PMS_P2;Temp;Humidity;BMP_temperature;BMP_pressure;BME280_temperature;BME280_humidity;BME280_pressure;Samples;Min_cycle;Max_cycle;Signal;HPM_P1;HPM_P2
2024/03/26 00:02:09;;;;;;;12.50;3.95;;;6.00;99.90;;;;;;5036525;28;20072;-79
2024/03/26 00:04:36;;;;;;;14.68;3.70;;;6.00;99.90;;;;;;5033847;28;20132;-79
2024/03/26 00:07:01;;;;;;;8.20;3.97;;;6.00;99.90;;;;;;5034587;28;20437;-79
2024/03/26 00:09:27;;;;;;;10.05;3.75;;;6.00;99.90;;;;;;5039157;28;20086;-79
2024/03/26 00:11:52;;;;;;;12.38;3.58;;;6.00;99.90;;;;;;5047936;28;20072;-79
2024/03/26 00:14:18;;;;;;;9.70;3.53;;;6.00;99.90;;;;;;5028647;28;20044;-78
2024/03/26 00:16:44;;;;;;;10.32;4.00;;;6.10;99.90;;;;;;5038911;28;20045;-78
2024/03/26 00:19:09;;;;;;;11.88;3.85;;;6.10;99.90;;;;;;5038748;28;20040;-78
2024/03/26 00:21:35;;;;;;;14.15;4.25;;;6.00;99.90;;;;;;5042943;28;20045;-78
2024/03/26 00:24:01;;;;;;;11.27;3.67;;;6.00;99.90;;;;;;5044921;28;20044;-78
2024/03/26 00:26:26;;;;;;;13.00;4.05;;;6.00;99.90;;;;;;5043564;28;20032;-78
2024/03/26 00:28:53;;;;;;;9.25;3.97;;;6.00;99.90;;;;;;5030332;28;20064;-79
2024/03/26 00:31:18;;;;;;;10.07;3.83;;;6.00;99.90;;;;;;5033895;28;20049;-78
2024/03/26 00:33:44;;;;;;;8.40;3.38;;;6.00;99.90;;;;;;5060274;28;20036;-78
2024/03/26 00:36:10;;;;;;;11.43;4.20;;;6.00;99.90;;;;;;5034674;28;20117;-78
2024/03/26 00:38:36;;;;;;;12.20;3.30;;;6.00;99.90;;;;;;5040439;28;20045;-78
2024/03/26 00:41:02;;;;;;;13.27;3.80;;;5.90;99.90;;;;;;5037602;28;20478;-78
2024/03/26 00:43:27;;;;;;;9.82;3.63;;;5.90;99.90;;;;;;5049790;28;20029;-78
2024/03/26 00:45:53;;;;;;;11.85;3.95;;;5.90;99.90;;;;;;5038001;28;20670;-79
2024/03/26 00:48:18;;;;;;;12.07;3.75;;;5.90;99.90;;;;;;5060229;28;20094;-78
2024/03/26 00:50:44;;;;;;;17.48;4.13;;;6.00;99.90;;;;;;5036301;28;20120;-78
2024/03/26 00:53:10;;;;;;;10.45;4.15;;;5.80;99.90;;;;;;5043235;28;20037;-79
2024/03/26 00:55:36;;;;;;;13.13;3.83;;;5.80;99.90;;;;;;5018768;28;20110;-79
2024/03/26 00:58:01;;;;;;;9.32;3.55;;;5.90;99.90;;;;;;5034279;28;20490;-79
2024/03/26 01:00:27;;;;;;;13.40;3.70;;;5.80;99.90;;;;;;5039368;28;20037;-78
2024/03/26 01:02:53;;;;;;;10.70;4.22;;;5.80;99.90;;;;;;5046954;28;20595;-78
2024/03/26 01:05:18;;;;;;;14.32;4.07;;;5.70;99.90;;;;;;5049025;28;20099;-78
2024/03/26 01:07:44;;;;;;;10.20;3.60;;;5.70;99.90;;;;;;5058938;28;20029;-78
2024/03/26 01:10:09;;;;;;;10.48;3.95;;;5.70;99.90;;;;;;5029302;28;20065;-79
2024/03/26 01:12:35;;;;;;;9.15;3.80;;;5.70;99.90;;;;;;5033426;28;20137;-79
2024/03/26 01:15:01;;;;;;;13.05;4.00;;;5.70;99.90;;;;;;5051935;28;20044;-79
2024/03/26 01:17:27;;;;;;;12.70;4.25;;;5.60;99.90;;;;;;5023189;28;20045;-79
2024/03/26 01:19:52;;;;;;;11.63;3.90;;;5.60;99.90;;;;;;5039976;28;20048;-78
2024/03/26 01:22:18;;;;;;;12.55;3.97;;;5.90;99.90;;;;;;5050490;28;20505;-78
2024/03/26 01:24:43;;;;;;;11.85;3.97;;;5.60;99.90;;;;;;5033604;28;20041;-79
2024/03/26 01:27:09;;;;;;;13.18;4.75;;;5.50;99.90;;;;;;5041653;28;20033;-79
2024/03/26 01:29:35;;;;;;;15.80;4.47;;;5.50;99.90;;;;;;5036953;28;20160;-78
2024/03/26 01:32:01;;;;;;;15.98;3.85;;;5.60;99.90;;;;;;5039148;28;20072;-78
2024/03/26 01:34:28;;;;;;;12.00;3.92;;;5.50;99.90;;;;;;5032710;28;20466;-78
2024/03/26 01:36:54;;;;;;;8.70;3.60;;;5.50;99.90;;;;;;5034476;28;20044;-78
2024/03/26 01:39:20;;;;;;;10.30;3.95;;;5.50;99.90;;;;;;5033843;28;20037;-78
2024/03/26 01:41:46;;;;;;;11.30;4.28;;;5.50;99.90;;;;;;5035198;28;20441;-78
2024/03/26 01:44:11;;;;;;;10.90;4.07;;;5.40;99.90;;;;;;5057672;28;20093;-78
2024/03/26 01:46:37;;;;;;;11.32;4.20;;;6.30;99.90;;;;;;5042962;28;20033;-78
2024/03/26 01:49:04;;;;;;;9.43;4.13;;;5.40;99.90;;;;;;5041333;28;20476;-78
2024/03/26 01:51:32;;;;;;;9.48;4.15;;;5.40;99.90;;;;;;5029324;28;20049;-78
2024/03/26 01:54:01;;;;;;;11.73;4.30;;;5.40;99.90;;;;;;5051105;28;20044;-78
2024/03/26 01:56:27;;;;;;;13.85;4.22;;;5.40;99.90;;;;;;5051707;28;20482;-78
2024/03/26 01:58:54;;;;;;;11.32;4.00;;;5.40;99.90;;;;;;5043352;28;20033;-78
2024/03/26 02:01:21;;;;;;;11.45;3.92;;;5.40;99.90;;;;;;5054652;28;20077;-78
2024/03/26 02:03:46;;;;;;;8.57;3.53;;;5.30;99.90;;;;;;5049372;28;20037;-78
2024/03/26 02:06:12;;;;;;;8.25;4.03;;;5.30;99.90;;;;;;5031855;28;20090;-78
2024/03/26 02:08:39;;;;;;;9.98;4.45;;;5.30;99.90;;;;;;5022455;28;20451;-78
2024/03/26 02:11:05;;;;;;;7.30;3.70;;;5.40;99.90;;;;;;5029133;28;20036;-78
2024/03/26 02:13:31;;;;;;;10.07;4.05;;;5.30;99.90;;;;;;5027844;28;20052;-78
2024/03/26 02:15:57;;;;;;;9.25;3.83;;;5.30;99.90;;;;;;5033450;28;20041;-79
2024/03/26 02:18:22;;;;;;;10.18;4.40;;;5.30;99.90;;;;;;5024900;28;20040;-79
2024/03/26 02:20:48;;;;;;;10.10;4.05;;;5.20;99.90;;;;;;5038064;28;20055;-79
2024/03/26 02:23:22;;;;;;;11.45;4.35;;;5.30;99.90;;;;;;5033514;28;20033;-79
2024/03/26 02:25:48;;;;;;;8.32;3.88;;;5.20;99.90;;;;;;5029622;28;20032;-79
2024/03/26 02:28:14;;;;;;;11.40;4.65;;;5.20;99.90;;;;;;5036781;28;20045;-79
2024/03/26 02:30:40;;;;;;;13.82;4.18;;;5.20;99.90;;;;;;5054510;28;20032;-79
2024/03/26 02:33:06;;;;;;;12.35;4.53;;;5.20;99.90;;;;;;5038538;28;20130;-79
2024/03/26 02:35:32;;;;;;;13.77;4.47;;;5.20;99.90;;;;;;5033748;28;20080;-79
2024/03/26 02:37:57;;;;;;;10.93;3.90;;;5.20;99.90;;;;;;5058443;28;20072;-79
2024/03/26 02:40:23;;;;;;;8.70;4.20;;;5.10;99.90;;;;;;5056329;28;20045;-78
2024/03/26 02:42:49;;;;;;;8.70;4.07;;;5.10;99.90;;;;;;5039205;28;20045;-78
2024/03/26 02:45:15;;;;;;;13.55;4.70;;;5.10;99.90;;;;;;5043942;28;20034;-78
2024/03/26 02:47:41;;;;;;;8.98;4.35;;;5.10;99.90;;;;;;5017202;28;20083;-78
2024/03/26 02:50:07;;;;;;;11.18;4.22;;;5.10;99.90;;;;;;5050596;28;20036;-78
2024/03/26 02:52:34;;;;;;;15.57;4.00;;;5.10;99.90;;;;;;5033195;28;20123;-78
2024/03/26 02:55:00;;;;;;;11.27;3.85;;;5.10;99.90;;;;;;5035952;28;20052;-78
2024/03/26 02:57:25;;;;;;;10.02;4.03;;;5.10;99.90;;;;;;5042890;28;20051;-78
2024/03/26 02:59:51;;;;;;;9.57;4.13;;;5.10;99.90;;;;;;5047894;28;20033;-78
2024/03/26 03:02:16;;;;;;;11.80;4.45;;;5.70;99.90;;;;;;5007117;28;20120;-78
2024/03/26 03:04:42;;;;;;;14.13;4.28;;;5.10;99.90;;;;;;5061364;28;20519;-78
2024/03/26 03:07:08;;;;;;;8.55;4.25;;;5.10;99.90;;;;;;5030322;28;20033;-78
2024/03/26 03:09:33;;;;;;;12.60;4.32;;;5.10;99.90;;;;;;5036063;28;20512;-78
2024/03/26 03:11:59;;;;;;;17.70;4.70;;;5.10;99.90;;;;;;5044428;28;20080;-78
2024/03/26 03:14:26;;;;;;;14.35;4.25;;;5.10;99.90;;;;;;5038010;28;20460;-78
2024/03/26 03:16:51;;;;;;;12.60;4.95;;;5.10;99.90;;;;;;5032086;28;20051;-78
2024/03/26 03:19:17;;;;;;;10.88;4.07;;;5.10;99.90;;;;;;5047488;28;20401;-78
2024/03/26 03:21:42;;;;;;;10.63;4.25;;;5.10;99.90;;;;;;5051561;28;20126;-78
2024/03/26 03:24:08;;;;;;;11.82;4.35;;;5.10;99.90;;;;;;5055970;28;20514;-78
2024/03/26 03:26:33;;;;;;;12.02;4.05;;;5.10;99.90;;;;;;5072842;28;20032;-78
2024/03/26 03:28:59;;;;;;;10.15;4.30;;;5.10;99.90;;;;;;5047592;28;20107;-78
2024/03/26 03:31:24;;;;;;;14.02;4.40;;;5.10;99.90;;;;;;5049438;28;20037;-78
2024/03/26 03:33:50;;;;;;;10.10;4.00;;;5.10;99.90;;;;;;5040243;28;20036;-78
2024/03/26 03:36:16;;;;;;;11.63;4.00;;;5.10;99.90;;;;;;5032352;28;20128;-79
2024/03/26 03:38:41;;;;;;;12.57;4.30;;;5.10;99.90;;;;;;5043553;28;20486;-78
2024/03/26 03:41:07;;;;;;;11.45;4.22;;;5.10;99.90;;;;;;5036143;28;20045;-79
2024/03/26 03:43:33;;;;;;;9.57;4.05;;;5.10;99.90;;;;;;5019860;28;20519;-79
2024/03/26 03:45:58;;;;;;;9.70;4.18;;;5.10;99.90;;;;;;5029995;28;20064;-78
2024/03/26 03:48:24;;;;;;;9.63;4.25;;;5.10;99.90;;;;;;5024310;28;20032;-78
2024/03/26 03:50:49;;;;;;;10.20;4.25;;;5.10;99.90;;;;;;5049120;28;20078;-78
2024/03/26 03:53:15;;;;;;;12.43;4.63;;;5.10;99.90;;;;;;5042368;28;20505;-78
2024/03/26 03:55:41;;;;;;;10.32;4.40;;;5.10;99.90;;;;;;5048614;28;20106;-78
2024/03/26 03:58:07;;;;;;;10.98;4.55;;;5.10;99.90;;;;;;5038826;28;20482;-78
2024/03/26 04:00:33;;;;;;;17.00;4.88;;;5.20;99.90;;;;;;5060210;28;20041;-78
2024/03/26 04:02:58;;;;;;;11.43;4.15;;;5.20;99.90;;;;;;5054649;28;20037;-78
2024/03/26 04:05:24;;;;;;;10.10;4.15;;;5.10;99.90;;;;;;5030505;28;20041;-78
2024/03/26 04:07:50;;;;;;;12.63;4.20;;;5.20;99.90;;;;;;5059145;28;20481;-78
2024/03/26 04:10:15;;;;;;;12.82;4.35;;;5.10;99.90;;;;;;5038440;28;20064;-78
2024/03/26 04:12:41;;;;;;;13.40;4.57;;;5.20;99.90;;;;;;5048327;28;20037;-78
2024/03/26 04:15:07;;;;;;;11.75;4.20;;;5.10;99.90;;;;;;5052720;28;20052;-78
2024/03/26 04:17:33;;;;;;;15.95;4.75;;;5.10;99.90;;;;;;5045389;28;20037;-78
2024/03/26 04:19:58;;;;;;;10.93;3.88;;;5.10;99.90;;;;;;5044964;28;20108;-78
2024/03/26 04:22:24;;;;;;;11.15;3.88;;;5.10;99.90;;;;;;5032775;28;20152;-77
2024/03/26 04:24:50;;;;;;;11.00;3.88;;;5.10;99.90;;;;;;5024730;28;20029;-77
2024/03/26 04:27:16;;;;;;;14.43;4.57;;;5.10;99.90;;;;;;5021994;28;20066;-78
2024/03/26 04:29:41;;;;;;;12.77;4.20;;;5.10;99.90;;;;;;5053310;28;20036;-77
2024/03/26 04:32:07;;;;;;;15.88;4.45;;;5.10;99.90;;;;;;5055150;28;20035;-77
2024/03/26 04:34:32;;;;;;;15.10;4.30;;;5.10;99.90;;;;;;5048324;28;20456;-77
2024/03/26 04:37:03;;;;;;;9.15;4.47;;;5.10;99.90;;;;;;5066711;28;20043;-77
2024/03/26 04:39:29;;;;;;;8.82;4.45;;;5.10;99.90;;;;;;5055971;28;20398;-77
2024/03/26 04:41:55;;;;;;;9.95;4.30;;;5.10;99.90;;;;;;5037612;28;20037;-77
2024/03/26 04:44:21;;;;;;;8.05;3.95;;;5.00;99.90;;;;;;5044744;28;20069;-78
2024/03/26 04:46:47;;;;;;;11.18;4.40;;;5.00;99.90;;;;;;5052357;28;20111;-77
2024/03/26 04:49:13;;;;;;;7.70;4.15;;;5.20;99.90;;;;;;5035735;28;20517;-77
2024/03/26 04:51:38;;;;;;;10.20;4.32;;;5.10;99.90;;;;;;5064018;28;20043;-77
2024/03/26 04:54:04;;;;;;;11.10;4.63;;;5.00;99.90;;;;;;5044346;28;20047;-77
2024/03/26 04:56:30;;;;;;;10.52;4.22;;;5.00;99.90;;;;;;5053123;28;20033;-77
2024/03/26 04:58:56;;;;;;;9.43;3.97;;;5.00;99.90;;;;;;5045139;28;20086;-77
2024/03/26 05:01:21;;;;;;;9.65;3.72;;;5.00;99.90;;;;;;5065302;28;20044;-77
2024/03/26 05:03:47;;;;;;;15.98;4.57;;;4.90;99.90;;;;;;5040821;28;20049;-77
2024/03/26 05:06:13;;;;;;;10.38;3.85;;;5.00;99.90;;;;;;5051742;28;20035;-77
2024/03/26 05:08:38;;;;;;;14.05;4.72;;;4.90;99.90;;;;;;5040052;28;20041;-77
2024/03/26 05:11:04;;;;;;;13.43;4.03;;;4.90;99.90;;;;;;5029693;28;20116;-77
2024/03/26 05:13:29;;;;;;;11.02;4.18;;;4.90;99.90;;;;;;5041817;28;20414;-77
2024/03/26 05:15:57;;;;;;;10.07;4.47;;;4.90;99.90;;;;;;5038731;28;20033;-77
2024/03/26 05:18:23;;;;;;;12.40;4.35;;;4.90;99.90;;;;;;5045381;28;20036;-77
2024/03/26 05:20:48;;;;;;;12.15;4.07;;;4.90;99.90;;;;;;5033393;28;20048;-77
2024/03/26 05:23:14;;;;;;;9.35;4.28;;;4.90;99.90;;;;;;5034658;28;20037;-77
2024/03/26 05:25:40;;;;;;;15.40;4.70;;;4.90;99.90;;;;;;5049995;28;20029;-77
2024/03/26 05:28:05;;;;;;;10.63;4.22;;;4.90;99.90;;;;;;5060686;28;20037;-76
2024/03/26 05:30:31;;;;;;;9.75;3.92;;;4.90;99.90;;;;;;5061126;28;20040;-77
2024/03/26 05:32:57;;;;;;;11.20;4.10;;;4.90;99.90;;;;;;5037159;28;20033;-77
2024/03/26 05:35:23;;;;;;;9.50;4.15;;;4.90;99.90;;;;;;5039802;28;20063;-77
2024/03/26 05:37:49;;;;;;;11.70;4.28;;;4.90;99.90;;;;;;5038820;28;20033;-77
2024/03/26 05:40:15;;;;;;;11.82;4.20;;;4.90;99.90;;;;;;5038702;28;20048;-78
2024/03/26 05:42:41;;;;;;;9.63;4.40;;;4.90;99.90;;;;;;5052716;28;20120;-77
2024/03/26 05:45:07;;;;;;;12.57;4.00;;;4.90;99.90;;;;;;5061942;28;20033;-77
2024/03/26 05:47:32;;;;;;;10.48;4.00;;;4.90;99.90;;;;;;5064581;28;20052;-78
2024/03/26 05:49:58;;;;;;;8.80;4.10;;;4.90;99.90;;;;;;5070426;28;20036;-77
2024/03/26 05:52:24;;;;;;;10.80;4.30;;;4.90;99.90;;;;;;5074256;28;20032;-78
2024/03/26 05:54:50;;;;;;;9.80;4.30;;;4.90;99.90;;;;;;5059654;28;20033;-77
2024/03/26 05:57:16;;;;;;;11.90;4.38;;;4.90;99.90;;;;;;5033962;28;20048;-76
2024/03/26 05:59:42;;;;;;;9.88;4.38;;;4.90;99.90;;;;;;5064146;28;20505;-77
2024/03/26 06:02:08;;;;;;;12.98;3.92;;;4.90;99.90;;;;;;5044176;28;20042;-77
2024/03/26 06:04:33;;;;;;;8.68;4.35;;;4.90;99.90;;;;;;5053818;28;20033;-76
2024/03/26 06:06:59;;;;;;;9.90;4.20;;;4.90;99.90;;;;;;5026808;28;20053;-76
2024/03/26 06:09:25;;;;;;;12.60;4.13;;;5.90;99.90;;;;;;5024704;28;20494;-76
2024/03/26 06:11:51;;;;;;;10.07;4.00;;;4.90;99.90;;;;;;5044593;28;20091;-76
2024/03/26 06:14:16;;;;;;;9.65;4.00;;;4.90;99.90;;;;;;5046444;28;20033;-76
2024/03/26 06:16:42;;;;;;;11.13;3.95;;;4.90;99.90;;;;;;5050951;28;20618;-76
2024/03/26 06:19:08;;;;;;;10.23;3.92;;;4.90;99.90;;;;;;5056039;28;20040;-77
2024/03/26 06:21:33;;;;;;;9.00;4.90;;;4.90;99.90;;;;;;5033976;28;20045;-77
2024/03/26 06:23:59;;;;;;;11.82;3.95;;;4.90;99.90;;;;;;5023585;28;20033;-77
2024/03/26 06:26:24;;;;;;;8.00;4.07;;;4.90;99.90;;;;;;5046861;28;20056;-76
2024/03/26 06:28:50;;;;;;;8.88;3.83;;;4.90;99.90;;;;;;5046455;28;20025;-77
2024/03/26 06:31:16;;;;;;;12.70;4.63;;;5.00;99.90;;;;;;5028498;28;20041;-77
2024/03/26 06:33:42;;;;;;;10.63;4.18;;;5.00;99.90;;;;;;5055506;28;20083;-77
2024/03/26 06:36:08;;;;;;;11.57;3.95;;;5.00;99.90;;;;;;5050634;28;20033;-77
2024/03/26 06:38:34;;;;;;;9.50;4.13;;;5.00;99.90;;;;;;5039278;28;20049;-77
2024/03/26 06:41:00;;;;;;;11.82;4.25;;;5.00;99.90;;;;;;5039358;28;20044;-77
2024/03/26 06:43:26;;;;;;;8.65;4.22;;;5.00;99.90;;;;;;5039277;28;20033;-77
2024/03/26 06:45:52;;;;;;;8.43;4.20;;;5.00;99.90;;;;;;5028846;28;20077;-77
2024/03/26 06:48:18;;;;;;;12.27;4.07;;;5.00;99.90;;;;;;5048303;28;20029;-77
2024/03/26 06:50:44;;;;;;;10.32;4.10;;;5.10;99.90;;;;;;5027916;28;20463;-77
2024/03/26 06:53:09;;;;;;;9.55;3.90;;;5.10;99.90;;;;;;5031251;28;20548;-78
2024/03/26 06:55:35;;;;;;;11.18;4.40;;;5.10;99.90;;;;;;5034279;28;20472;-78
2024/03/26 06:58:00;;;;;;;9.32;4.20;;;5.20;99.90;;;;;;5027396;28;20070;-78
2024/03/26 07:00:27;;;;;;;10.68;4.07;;;5.90;99.90;;;;;;5056043;28;20405;-78
2024/03/26 07:02:57;;;;;;;11.35;3.78;;;5.20;99.90;;;;;;5038199;28;20545;-78
2024/03/26 07:05:25;;;;;;;8.85;4.03;;;5.30;99.90;;;;;;5033172;28;20064;-78
2024/03/26 07:07:51;;;;;;;10.45;4.00;;;5.30;99.90;;;;;;5029938;28;20033;-79
2024/03/26 07:10:16;;;;;;;8.02;4.00;;;5.30;99.90;;;;;;5016142;28;20098;-78
2024/03/26 07:12:42;;;;;;;13.98;4.38;;;5.30;99.90;;;;;;5029082;28;20040;-78
2024/03/26 07:15:09;;;;;;;9.98;3.92;;;5.50;99.90;;;;;;5032701;28;20622;-79
2024/03/26 07:17:34;;;;;;;8.50;3.72;;;5.40;99.90;;;;;;5042830;28;20041;-79
2024/03/26 07:20:00;;;;;;;11.50;3.92;;;5.40;99.90;;;;;;5051987;28;20039;-79
2024/03/26 07:22:26;;;;;;;12.70;4.15;;;5.40;99.90;;;;;;5040074;28;20045;-78
2024/03/26 07:24:51;;;;;;;10.05;4.25;;;5.40;99.90;;;;;;5057972;28;20037;-77
2024/03/26 07:27:17;;;;;;;11.32;4.30;;;5.50;99.90;;;;;;5043231;28;20032;-78
2024/03/26 07:29:46;;;;;;;10.70;4.40;;;5.50;99.90;;;;;;5032788;28;20112;-78
2024/03/26 07:32:12;;;;;;;11.18;4.10;;;5.50;99.90;;;;;;5028408;28;20052;-78
2024/03/26 07:34:38;;;;;;;8.45;3.97;;;5.50;99.90;;;;;;5050286;28;20036;-78
2024/03/26 07:37:03;;;;;;;7.32;4.00;;;5.60;99.90;;;;;;5062702;28;20111;-77
2024/03/26 07:39:29;;;;;;;9.50;4.57;;;5.70;99.90;;;;;;5050024;28;20053;-77
2024/03/26 07:41:56;;;;;;;9.52;3.85;;;5.70;99.90;;;;;;5028698;28;20041;-77
2024/03/26 07:44:21;;;;;;;7.22;3.85;;;5.70;99.90;;;;;;5059737;28;20060;-77
2024/03/26 07:46:47;;;;;;;11.70;4.05;;;5.80;99.90;;;;;;5058900;28;20072;-77
2024/03/26 07:49:13;;;;;;;10.57;4.32;;;5.80;99.90;;;;;;5016128;28;20040;-77
2024/03/26 07:51:39;;;;;;;10.07;4.47;;;5.90;99.90;;;;;;5048391;28;20067;-77
2024/03/26 07:54:05;;;;;;;10.00;4.40;;;5.90;99.90;;;;;;5045589;28;20029;-78
2024/03/26 07:56:31;;;;;;;11.93;4.30;;;5.90;99.90;;;;;;5023768;28;20059;-77
2024/03/26 07:58:57;;;;;;;11.68;4.38;;;6.00;99.90;;;;;;5032529;28;20092;-77
2024/03/26 08:01:25;;;;;;;10.60;4.30;;;6.10;99.90;;;;;;5028369;28;20073;-76
2024/03/26 08:03:51;;;;;;;14.75;4.13;;;6.10;99.90;;;;;;5021725;28;20033;-78
2024/03/26 08:06:17;;;;;;;9.50;4.28;;;6.10;99.90;;;;;;5026188;28;20514;-77
2024/03/26 08:08:49;;;;;;;9.10;3.83;;;6.20;99.90;;;;;;5043251;28;20045;-77
2024/03/26 08:11:14;;;;;;;8.40;4.10;;;6.20;99.90;;;;;;5035458;28;20041;-77
2024/03/26 08:13:40;;;;;;;13.98;4.40;;;6.30;99.90;;;;;;5020683;28;20045;-77
2024/03/26 08:16:06;;;;;;;11.30;4.30;;;6.30;99.90;;;;;;5042930;28;20489;-77
2024/03/26 08:18:32;;;;;;;11.10;4.35;;;6.50;99.90;;;;;;5026058;28;20040;-77
2024/03/26 08:21:00;;;;;;;15.10;4.70;;;6.40;99.90;;;;;;5034927;28;20029;-77
2024/03/26 08:23:26;;;;;;;11.10;4.45;;;6.50;99.90;;;;;;5058048;28;20036;-77
2024/03/26 08:25:51;;;;;;;11.90;4.63;;;6.60;99.90;;;;;;5026462;28;20040;-78
2024/03/26 08:28:17;;;;;;;10.98;4.07;;;6.60;99.90;;;;;;5021740;28;20064;-78
2024/03/26 08:30:42;;;;;;;10.52;4.05;;;6.70;99.90;;;;;;5034487;28;20037;-78
2024/03/26 08:33:08;;;;;;;8.50;4.03;;;6.80;99.90;;;;;;5037635;28;20029;-78
2024/03/26 08:35:41;;;;;;;7.75;3.95;;;6.90;99.90;;;;;;5050301;28;20045;-77
2024/03/26 08:38:07;;;;;;;7.93;3.80;;;7.00;99.90;;;;;;5026202;28;20073;-79
2024/03/26 08:40:33;;;;;;;7.90;4.00;;;7.10;99.90;;;;;;5026009;28;20094;-79
2024/03/26 08:42:58;;;;;;;8.30;3.92;;;7.10;99.90;;;;;;5033744;28;20029;-78
2024/03/26 08:45:25;;;;;;;10.18;4.07;;;7.20;99.90;;;;;;5052790;28;20490;-79
2024/03/26 08:47:51;;;;;;;10.05;4.13;;;7.20;99.90;;;;;;5015679;28;20509;-78
2024/03/26 08:50:17;;;;;;;9.85;4.03;;;7.30;99.90;;;;;;5016301;28;20103;-77
2024/03/26 08:52:43;;;;;;;10.00;4.03;;;7.30;99.90;;;;;;5041269;28;20036;-78
2024/03/26 08:55:08;;;;;;;9.82;4.00;;;7.40;99.90;;;;;;5029355;28;20041;-78
2024/03/26 08:57:34;;;;;;;10.05;3.88;;;7.40;99.90;;;;;;5049657;28;20405;-78
2024/03/26 08:59:59;;;;;;;15.07;4.32;;;7.60;99.90;;;;;;5052738;28;20037;-78
2024/03/26 09:02:25;;;;;;;12.95;3.88;;;7.70;99.90;;;;;;5024391;28;20034;-78
2024/03/26 09:04:51;;;;;;;11.43;3.80;;;7.80;99.90;;;;;;5025096;28;20128;-77
2024/03/26 09:07:16;;;;;;;13.55;4.05;;;7.80;99.90;;;;;;5022335;28;20049;-77
2024/03/26 09:09:42;;;;;;;10.70;4.22;;;8.00;99.90;;;;;;5025244;28;20501;-77
2024/03/26 09:12:08;;;;;;;9.13;3.83;;;8.00;99.90;;;;;;5018599;28;20045;-77
2024/03/26 09:14:34;;;;;;;12.57;3.85;;;8.20;99.90;;;;;;5025617;28;20421;-78
2024/03/26 09:17:00;;;;;;;10.45;3.97;;;8.20;99.90;;;;;;5025205;28;20089;-78
2024/03/26 09:19:26;;;;;;;12.30;4.03;;;8.40;99.90;;;;;;5019916;28;20413;-78
2024/03/26 09:21:52;;;;;;;7.40;3.80;;;8.40;99.90;;;;;;5021824;28;20041;-78
2024/03/26 09:24:19;;;;;;;10.43;4.20;;;8.50;99.90;;;;;;5017759;28;20061;-78
2024/03/26 09:26:46;;;;;;;8.45;3.83;;;8.70;99.90;;;;;;5049466;28;20072;-78
2024/03/26 09:29:11;;;;;;;9.88;4.07;;;8.60;99.90;;;;;;5049344;28;20079;-78
2024/03/26 09:31:37;;;;;;;8.18;3.53;;;8.70;99.90;;;;;;5039417;28;20067;-78
2024/03/26 09:34:02;;;;;;;14.13;4.25;;;8.80;99.90;;;;;;5024983;28;20048;-78
2024/03/26 09:36:28;;;;;;;8.00;3.58;;;8.80;99.90;;;;;;5052355;28;20566;-78
2024/03/26 09:38:54;;;;;;;9.70;3.40;;;9.00;99.90;;;;;;5026255;28;20044;-78
2024/03/26 09:41:22;;;;;;;12.32;3.80;;;9.20;99.90;;;;;;5023612;28;20119;-78
2024/03/26 09:43:52;;;;;;;;;;;9.40;99.90;;;;;;5035164;28;20029;-78
2024/03/26 09:46:18;;;;;;;;;;;9.70;99.90;;;;;;5033063;28;19923;-78
2024/03/26 09:48:43;;;;;;;7.78;3.25;;;9.90;99.90;;;;;;5043888;28;19920;-78
2024/03/26 09:51:12;;;;;;;9.45;3.28;;;10.20;99.90;;;;;;5041539;28;20052;-78
2024/03/26 09:53:39;;;;;;;7.40;3.42;;;10.50;99.90;;;;;;5031622;28;20040;-78
2024/03/26 09:56:05;;;;;;;9.00;3.90;;;10.70;99.90;;;;;;5057963;28;20036;-78
2024/03/26 09:58:31;;;;;;;7.70;3.65;;;10.70;99.90;;;;;;5033969;28;20125;-78
2024/03/26 10:00:58;;;;;;;6.85;3.00;;;10.80;99.90;;;;;;5018830;28;20067;-77
2024/03/26 10:03:26;;;;;;;7.75;3.30;;;10.90;99.90;;;;;;5046947;28;20045;-77
2024/03/26 10:05:52;;;;;;;9.20;3.08;;;10.90;99.90;;;;;;5037047;28;20052;-77
2024/03/26 10:08:18;;;;;;;8.20;3.30;;;11.10;99.90;;;;;;5031014;28;20429;-77
2024/03/26 10:10:44;;;;;;;10.00;4.32;;;11.10;99.90;;;;;;5028543;28;20041;-77
2024/03/26 10:13:11;;;;;;;6.55;3.55;;;11.30;99.90;;;;;;5037572;28;20521;-77
2024/03/26 10:15:38;;;;;;;;;;;11.50;99.90;;;;;;5058552;28;20505;-78
2024/03/26 10:18:08;;;;;;;9.00;3.63;;;11.70;99.90;;;;;;5045275;28;19921;-78
2024/03/26 10:20:34;;;;;;;7.93;3.42;;;11.80;99.90;;;;;;5029879;28;20120;-78
2024/03/26 10:23:00;;;;;;;6.35;4.10;;;11.90;99.90;;;;;;5043803;28;20168;-78
2024/03/26 10:25:30;;;;;;;6.75;3.85;;;11.90;99.90;;;;;;5031411;28;20179;-78
2024/03/26 10:27:56;;;;;;;11.25;3.90;;;11.80;99.90;;;;;;5045493;28;20116;-78
2024/03/26 10:30:22;;;;;;;10.88;3.47;;;11.70;99.90;;;;;;5045301;28;20033;-78
2024/03/26 10:32:54;;;;;;;6.40;3.40;;;11.70;99.90;;;;;;5037751;28;20044;-78
2024/03/26 10:35:21;;;;;;;8.77;3.25;;;11.80;99.90;;;;;;5028667;28;20071;-78
2024/03/26 10:37:54;;;;;;;8.85;3.65;;;11.80;99.90;;;;;;5064568;28;20037;-78
2024/03/26 10:40:22;;;;;;;;;;;11.80;99.90;;;;;;5045083;28;20067;-78
2024/03/26 10:42:51;;;;;;;8.48;3.40;;;11.90;99.90;;;;;;5062591;28;19921;-78
2024/03/26 10:45:17;;;;;;;9.88;3.53;;;12.00;99.90;;;;;;5056159;28;20041;-78
2024/03/26 10:47:43;;;;;;;6.05;3.53;;;12.30;99.90;;;;;;5060408;28;20111;-78
2024/03/26 10:50:11;;;;;;;6.47;3.55;;;12.40;99.90;;;;;;5033904;28;20036;-78
2024/03/26 10:52:37;;;;;;;6.13;3.40;;;12.30;99.90;;;;;;5058245;28;20033;-78
2024/03/26 10:55:04;;;;;;;7.30;3.40;;;12.30;99.90;;;;;;5055349;28;20028;-78
2024/03/26 10:57:30;;;;;;;8.45;3.10;;;12.20;99.90;;;;;;5049877;28;20091;-78
2024/03/26 10:59:56;;;;;;;7.00;3.88;;;12.10;99.90;;;;;;5029355;28;20065;-78
2024/03/26 11:02:23;;;;;;;8.57;3.60;;;11.90;99.90;;;;;;5032716;28;20037;-78
2024/03/26 11:04:49;;;;;;;8.90;3.65;;;11.80;99.90;;;;;;5023150;28;20124;-78
2024/03/26 11:07:15;;;;;;;6.63;3.25;;;11.80;99.90;;;;;;5047634;28;20136;-78
2024/03/26 11:09:41;;;;;;;9.15;3.42;;;11.70;99.90;;;;;;5025149;28;20034;-78
2024/03/26 11:12:13;;;;;;;8.18;3.85;;;11.60;99.90;;;;;;5031101;28;20138;-78
2024/03/26 11:14:42;;;;;;;9.05;3.97;;;11.50;99.90;;;;;;5048531;28;20052;-78
2024/03/26 11:17:14;;;;;;;7.50;4.00;;;11.40;99.90;;;;;;5033167;28;20064;-78
2024/03/26 11:19:40;;;;;;;8.52;3.72;;;11.40;99.90;;;;;;5046951;28;20033;-78
2024/03/26 11:22:06;;;;;;;7.85;3.30;;;11.30;99.90;;;;;;5042185;28;20549;-78
2024/03/26 11:24:35;;;;;;;8.52;3.40;;;11.30;99.90;;;;;;5024482;28;20041;-78
2024/03/26 11:27:03;;;;;;;11.90;3.65;;;11.30;99.90;;;;;;5046240;28;20052;-78
2024/03/26 11:29:31;;;;;;;8.48;3.60;;;11.20;99.90;;;;;;5031574;28;20063;-78
2024/03/26 11:31:58;;;;;;;8.05;3.78;;;11.20;99.90;;;;;;5033152;28;20043;-77
2024/03/26 11:34:25;;;;;;;7.45;4.40;;;11.30;99.90;;;;;;5036490;28;20049;-79
2024/03/26 11:36:55;;;;;;;10.73;4.35;;;11.20;99.90;;;;;;5056203;28;20103;-78
2024/03/26 11:39:25;;;;;;;8.82;3.88;;;11.20;99.90;;;;;;5028031;28;20060;-79
2024/03/26 11:41:52;;;;;;;7.80;3.72;;;11.20;99.90;;;;;;5049089;28;20515;-79
2024/03/26 11:44:17;;;;;;;10.25;4.30;;;11.40;99.90;;;;;;5029571;28;20111;-79
2024/03/26 11:46:47;;;;;;;10.07;4.00;;;11.30;99.90;;;;;;5059097;28;20036;-79
2024/03/26 11:49:13;;;;;;;8.30;3.72;;;11.30;99.90;;;;;;5051795;28;20379;-79
2024/03/26 11:51:39;;;;;;;8.98;4.50;;;11.30;99.90;;;;;;5046024;28;20089;-79
2024/03/26 11:54:05;;;;;;;7.97;4.43;;;11.30;99.90;;;;;;5060431;28;20033;-79
2024/03/26 11:56:32;;;;;;;8.57;4.10;;;11.40;99.90;;;;;;5032040;28;20051;-79
2024/03/26 11:58:57;;;;;;;19.77;12.65;;;11.50;99.90;;;;;;5032105;28;20048;-78
2024/03/26 12:01:24;;;;;;;10.85;6.75;;;11.60;99.90;;;;;;5056987;28;20037;-79
2024/03/26 12:03:58;;;;;;;7.95;4.25;;;11.50;99.90;;;;;;5051219;28;20036;-78
2024/03/26 12:06:26;;;;;;;11.20;4.28;;;11.40;99.90;;;;;;5049967;28;20037;-78
2024/03/26 12:08:54;;;;;;;10.05;4.00;;;11.40;99.90;;;;;;5057188;28;20118;-78
2024/03/26 12:11:21;;;;;;;8.88;4.38;;;11.40;99.90;;;;;;5056886;28;20509;-78
2024/03/26 12:13:47;;;;;;;9.73;3.95;;;11.40;99.90;;;;;;5044182;28;20115;-78
2024/03/26 12:16:20;;;;;;;7.72;3.83;;;11.40;99.90;;;;;;5048550;28;20560;-79
2024/03/26 12:18:46;;;;;;;10.25;4.70;;;11.50;99.90;;;;;;5023729;28;20045;-78
2024/03/26 12:21:12;;;;;;;7.32;4.43;;;11.50;99.90;;;;;;5030678;28;20044;-78
2024/03/26 12:23:38;;;;;;;10.00;5.28;;;11.50;99.90;;;;;;5031732;28;20370;-77
2024/03/26 12:26:04;;;;;;;8.10;4.88;;;11.60;99.90;;;;;;5051038;28;20025;-78
2024/03/26 12:28:30;;;;;;;16.85;8.82;;;11.60;99.90;;;;;;5025852;28;20045;-77
2024/03/26 12:30:56;;;;;;;7.65;4.65;;;11.60;99.90;;;;;;5023671;28;20120;-77
2024/03/26 12:33:22;;;;;;;9.00;4.25;;;11.60;99.90;;;;;;5031900;28;20465;-78
2024/03/26 12:35:47;;;;;;;9.50;6.38;;;11.50;99.90;;;;;;5027605;28;20037;-77
2024/03/26 12:38:13;;;;;;;12.25;5.68;;;11.50;99.90;;;;;;5057059;28;20460;-78
2024/03/26 12:40:38;;;;;;;13.98;6.30;;;11.50;99.90;;;;;;5020594;28;20075;-78
2024/03/26 12:43:04;;;;;;;9.38;4.53;;;11.60;99.90;;;;;;5054764;28;20491;-79
2024/03/26 12:45:30;;;;;;;7.22;4.75;;;11.70;99.90;;;;;;5029576;28;20041;-78